Latest Coastal Weather Observations for Portland Airport

IDV60701

Issued at 8:21 pm EST Thursday 30 May 2024 (issued every 10 minutes, with the page automatically refreshed every 10 minutes)

About coastal observations | Map of coastal stations | Coastal observations for VIC | Marine services | Other Formats
Station Details ID: 090171 Name: PORTLAND AIRPORT Lat: -38.31 Lon: 141.47 Height: 80.9 m
Data from the previous 72 hours. | See also: Recent months at Portland Airport
Date/Time
EST
Wind Sea
Height
m
Swell Vis
km
Cloud Weather Temp
°C
Press
MSL
hPa
Rain since
9am
mm
Dir  Spd
kts
Gust
kts
Height
m
Period
s
Dir
30/08:16pm NNW 16 26 - - - - 10 Partly cloudy - 13.5 1004.5 5.6
30/08:00pm NNW 16 24 - - - - 10 Partly cloudy - 13.4 1004.5 5.6
30/07:30pm NNW 14 21 - - - - 10 Partly cloudy - 13.1 1004.6 5.6
30/07:00pm N 13 21 - - - - 10 - - 12.9 1004.7 5.6
30/06:30pm NNW 14 19 - - - - 10 Partly cloudy - 13.1 1004.8 5.6
30/06:00pm NNW 12 19 - - - - 10 Mostly clear - 13.1 1004.7 5.6
30/05:30pm NNW 13 19 - - - - 10 Partly cloudy - 13.4 1004.6 5.6
30/05:28pm NNW 13 21 - - - - 10 Partly cloudy - 13.4 1004.6 5.6
30/05:00pm N 13 19 - - - - 10 Partly cloudy - 13.6 1004.4 5.6
30/04:30pm N 13 19 - - - - 10 Partly cloudy - 14.0 1004.3 5.6
30/04:00pm N 13 22 - - - - 10 Partly cloudy - 13.8 1004.6 5.6
30/03:30pm N 12 19 - - - - 10 Cloudy - 13.6 1004.6 5.6
30/03:00pm NNW 11 16 - - - - 10 Cloudy Recent precip. 13.4 1004.9 5.6
30/02:30pm NNW 11 19 - - - - 10 Partly cloudy - 13.4 1005.1 5.4
30/02:00pm NNW 12 17 - - - - 10 Partly cloudy - 13.6 1005.8 4.6
30/01:30pm N 13 20 - - - - 10 Partly cloudy - 13.7 1005.5 4.0
30/01:23pm N 15 22 - - - - 10 Partly cloudy - 13.7 1005.5 4.0
30/01:08pm N 15 25 - - - - 10 Partly cloudy - 13.7 1005.7 3.8
30/01:00pm N 15 21 - - - - 10 Partly cloudy - 13.7 1005.9 3.8
30/12:30pm N 17 23 - - - - 10 Partly cloudy - 13.8 1006.3 3.4
30/12:00pm N 18 30 - - - - 10 Mostly cloudy Rain 13.7 1006.9 3.2
30/11:48am N 16 27 - - - - 10 Partly cloudy - 13.7 1007.4 2.8
30/11:30am N 17 24 - - - - 9 Partly cloudy - 13.8 1007.8 2.2
30/11:02am N 15 25 - - - - 10 Partly cloudy - 14.0 1008.3 1.4
30/11:00am N 16 25 - - - - 10 Partly cloudy - 14.1 1008.2 1.2
30/10:34am NNW 17 28 - - - - 10 Partly cloudy - 14.7 1008.3 0.6
30/10:30am NNW 17 24 - - - - 10 Partly cloudy - 14.9 1008.3 0.6
30/10:17am NNW 15 25 - - - - 10 Partly cloudy - 16.1 1008.2 0.2
30/10:00am NNW 16 23 - - - - 10 Partly cloudy - 15.4 1008.1 0.2
30/09:30am N 16 27 - - - - 10 Partly cloudy - 16.1 1007.7 0.0
30/09:17am NNW 15 28 - - - - 10 Partly cloudy - 16.2 1007.9 0.0
30/09:00am N 15 21 - - - - 10 Partly cloudy - 17.0 1007.5 0.0
30/08:30am N 13 21 - - - - 10 Partly cloudy - 17.4 1007.4 0.0
30/08:00am N 13 19 - - - - 10 Partly cloudy - 17.1 1007.7 0.0
30/07:30am N 14 27 - - - - 10 Partly cloudy - 17.2 1007.5 0.0
30/07:00am N 12 18 - - - - 10 - - 16.8 1007.6 0.0
30/06:30am N 13 20 - - - - 10 - - 16.7 1008.2 0.0
30/06:00am N 12 18 - - - - 10 Cloudy - 16.6 1008.7 0.0
30/05:30am N 11 15 - - - - 10 - - 16.1 1009.1 0.0
30/05:00am N 10 14 - - - - 10 - - 15.8 1009.5 0.0
30/04:30am NNE 8 12 - - - - 10 - - 14.8 1010.1 0.0
30/04:00am NNE 8 13 - - - - 10 - - 14.4 1010.3 0.0
30/03:30am NNE 9 15 - - - - 10 - - 14.4 1010.6 0.0
30/03:00am N 10 16 - - - - 10 - - 14.2 1010.7 0.0
30/02:30am N 12 18 - - - - 10 - - 14.6 1011.2 0.0
30/02:00am N 13 19 - - - - 10 - - 14.9 1011.3 0.0
30/01:30am N 15 24 - - - - 10 - - 15.3 1011.7 0.0
30/01:07am N 15 26 - - - - 10 - - 15.5 1012.1 0.0
30/01:00am N 15 21 - - - - 10 - - 15.4 1012.4 0.0
30/12:52am N 15 25 - - - - 10 - - 15.5 1012.4 0.0
30/12:30am N 15 24 - - - - 10 - - 15.4 1012.5 0.0
30/12:00am N 15 24 - - - - 10 - - 15.4 1012.9 0.0
 
Date/Time
EST
Wind Sea
Height
m
Swell Vis
km
Cloud Weather Temp
°C
Press
MSL
hPa
Rain since
9am
mm
Dir  Spd
kts
Gust
kts
Height
m
Period
s
Dir
29/11:30pm N 13 21 - - - - 10 - - 15.3 1013.2 0.0
29/11:00pm NNE 11 16 - - - - 10 - - 15.1 1013.8 0.0
29/10:30pm N 11 16 - - - - 10 - - 15.1 1014.4 0.0
29/10:00pm N 10 15 - - - - 10 - - 15.2 1014.9 0.0
29/09:30pm N 9 11 - - - - 10 - - 14.7 1015.3 0.0
29/09:00pm NNE 8 12 - - - - 10 - - 14.2 1015.5 0.0
29/08:30pm NNE 8 11 - - - - 10 - - 13.7 1015.6 0.0
29/08:00pm NNE 8 11 - - - - 10 - - 14.2 1015.7 0.0
29/07:30pm NNE 8 12 - - - - 10 - - 14.7 1015.8 0.0
29/07:00pm NNE 10 12 - - - - 10 - - 15.1 1015.9 0.0
29/06:30pm NNE 10 13 - - - - 10 - - 15.1 1016.1 0.0
29/06:00pm NNE 9 11 - - - - 10 - - 15.4 1016.1 0.0
29/05:30pm NNE 9 13 - - - - 10 - - 15.9 1016.2 0.0
29/05:00pm NNE 6 9 - - - - 10 - - 15.9 1016.2 0.0
29/04:30pm NNE 10 16 - - - - 10 - - 17.1 1016.2 0.0
29/04:00pm N 8 13 - - - - 10 - - 17.5 1016.4 0.0
29/03:30pm NNE 8 14 - - - - 10 - - 18.4 1016.5 0.0
29/03:00pm N 11 18 - - - - 10 - - 18.8 1016.6 0.0
29/02:30pm N 11 16 - - - - 10 - - 18.6 1016.9 0.0
29/02:00pm N 12 17 - - - - 10 - - 19.0 1017.2 0.0
29/01:30pm N 12 17 - - - - 10 - - 18.6 1017.7 0.0
29/01:00pm N 13 19 - - - - 10 - - 17.9 1018.3 0.0
29/12:30pm N 15 23 - - - - 10 - - 17.8 1018.7 0.0
29/12:00pm N 16 23 - - - - 10 - - 17.1 1019.4 0.0
29/11:47am N 15 25 - - - - 10 - - 17.0 1019.7 0.0
29/11:30am N 11 17 - - - - 10 - - 16.5 1020.0 0.0
29/11:00am NNE 7 11 - - - - 10 - - 15.4 1020.6 0.0
29/10:30am NNE 8 11 - - - - 10 - - 14.3 1021.0 0.0
29/10:00am N 10 15 - - - - 10 - - 13.3 1021.2 0.0
29/09:30am N 10 15 - - - - 10 - - 12.5 1021.1 0.0
29/09:00am N 7 10 - - - - 10 - - 11.0 1021.3 0.0
29/08:30am N 7 12 - - - - 10 - - 9.3 1021.5 0.0
29/08:00am N 9 13 - - - - 10 - - 8.7 1021.6 0.0
29/07:30am N 9 12 - - - - 10 - - 8.2 1021.6 0.0
29/07:00am N 11 15 - - - - 10 - - 8.3 1021.5 0.0
29/06:30am NNE 10 14 - - - - 10 - - 8.6 1021.4 0.0
29/06:00am NNE 11 16 - - - - 10 - - 8.9 1021.5 0.0
29/05:30am NNE 12 16 - - - - 10 - - 9.9 1021.5 0.0
29/05:00am NNE 11 15 - - - - 10 - - 10.0 1021.6 0.0
29/04:30am NNE 11 16 - - - - 10 - - 10.0 1021.7 0.0
29/04:00am NNE 11 15 - - - - 10 - - 10.1 1021.9 0.0
29/03:30am NNE 10 14 - - - - 10 - - 10.2 1022.2 0.0
29/03:00am NNE 9 12 - - - - 10 - - 10.3 1022.5 0.0
29/02:30am NNE 9 13 - - - - 10 - - 10.9 1022.5 0.0
29/02:00am N 9 12 - - - - 10 - - 11.2 1022.5 0.0
29/01:30am N 9 12 - - - - 10 - - 11.1 1022.5 0.0
29/01:00am N 9 12 - - - - 10 - - 11.2 1022.7 0.0
29/12:30am N 9 11 - - - - 10 - - 11.3 1022.9 0.0
29/12:00am N 8 12 - - - - 10 - - 11.5 1023.0 0.0
 
Date/Time
EST
Wind Sea
Height
m
Swell Vis
km
Cloud Weather Temp
°C
Press
MSL
hPa
Rain since
9am
mm
Dir  Spd
kts
Gust
kts
Height
m
Period
s
Dir
28/11:30pm N 8 11 - - - - 10 - - 11.5 1023.1 0.0
28/11:00pm N 8 11 - - - - 10 - - 11.6 1023.2 0.0
28/10:30pm N 8 10 - - - - 10 - - 11.5 1023.3 0.0
28/10:00pm N 7 10 - - - - 10 - - 11.3 1023.3 0.0
28/09:30pm N 7 9 - - - - 10 - - 11.3 1023.3 0.0
28/09:00pm NNE 6 8 - - - - 10 - - 11.7 1023.4 0.0
28/08:30pm N 6 9 - - - - 10 - - 11.7 1023.3 0.0
28/08:00pm NNE 4 5 - - - - 10 - - 11.4 1023.3 0.0
28/07:30pm NNE 5 6 - - - - 10 - - 11.6 1023.3 0.0
28/07:00pm NNE 5 6 - - - - 10 - - 12.8 1023.2 0.0
28/06:30pm N 5 6 - - - - 10 - - 12.2 1023.2 0.0
28/06:00pm N 4 5 - - - - 10 - - 14.6 1023.0 0.0
28/05:30pm N 5 6 - - - - 10 - - 16.4 1022.8 0.0
28/05:00pm N 5 6 - - - - 10 - - 18.5 1022.8 0.0
28/04:30pm N 4 7 - - - - 10 - - 20.1 1022.8 0.0
28/04:00pm N 7 9 - - - - 10 - - 20.8 1023.0 0.0
28/03:30pm N 9 13 - - - - 10 - - 21.2 1022.9 0.0
28/03:00pm NNW 8 11 - - - - 10 - - 21.6 1022.9 0.0
28/02:30pm NNW 11 15 - - - - 10 - - 21.5 1023.1 0.0
28/02:00pm N 9 13 - - - - 10 - - 21.3 1023.2 0.0
28/01:30pm N 9 13 - - - - 10 - - 21.0 1023.4 0.0
28/01:00pm NNW 11 15 - - - - 10 - - 20.6 1023.8 0.0
28/12:30pm NNW 11 19 - - - - 10 - - 19.8 1024.2 0.0
28/12:00pm NNW 12 16 - - - - 10 - - 19.2 1024.8 0.0
28/11:30am NNW 11 15 - - - - 10 - - 18.8 1025.4 0.0
28/11:00am N 11 15 - - - - 10 - - 18.0 1025.5 0.0
28/10:30am NNW 10 14 - - - - 10 - - 17.0 1025.6 0.0
28/10:00am N 10 16 - - - - 10 - - 15.9 1025.5 0.0
28/09:30am N 9 13 - - - - 10 - - 14.5 1025.5 0.0
28/09:00am N 9 13 - - - - 10 - - 13.0 1025.5 0.0
28/08:30am N 8 10 - - - - 10 - - 10.7 1025.4 0.0
28/08:00am N 8 9 - - - - 10 - - 9.9 1025.3 0.0
28/07:30am N 7 9 - - - - 10 - - 9.7 1025.2 0.0
28/07:00am N 7 8 - - - - 10 - - 8.6 1025.1 0.0
28/06:30am N 5 7 - - - - 10 - - 7.8 1024.9 0.0
28/06:00am N 6 7 - - - - 10 - - 7.8 1024.7 0.0
28/05:30am N 6 8 - - - - 10 - - 8.1 1024.7 0.0
28/05:00am N 7 8 - - - - 10 - - 9.3 1024.6 0.0
28/04:30am N 7 9 - - - - 10 - - 9.3 1024.5 0.0
28/04:00am N 8 10 - - - - 10 - - 9.8 1024.6 0.0
28/03:30am N 8 9 - - - - 10 - - 10.1 1024.6 0.0
28/03:00am N 8 9 - - - - 10 - - 9.9 1024.7 0.0
28/02:30am N 7 8 - - - - 10 - - 9.6 1024.6 0.0
28/02:00am N 8 10 - - - - 10 - - 10.0 1024.4 0.0
28/01:30am N 8 9 - - - - 10 - - 10.7 1024.5 0.0
28/01:00am N 8 10 - - - - 10 - - 11.4 1024.7 0.0
28/12:30am NNW 9 10 - - - - 10 - - 11.9 1024.8 0.0
28/12:00am N 8 9 - - - - 10 - - 11.3 1025.0 0.0
 
Date/Time
EST
Wind Sea
Height
m
Swell Vis
km
Cloud Weather Temp
°C
Press
MSL
hPa
Rain since
9am
mm
Dir  Spd
kts
Gust
kts
Height
m
Period
s
Dir
27/11:30pm NW 7 10 - - - - 10 - - 13.0 1025.3 0.0
27/11:00pm NW 9 13 - - - - 10 - - 13.5 1025.3 0.0
27/10:30pm NW 9 13 - - - - 10 - - 14.1 1025.4 0.0
27/10:00pm NW 9 12 - - - - 10 - - 13.2 1025.4 0.0
27/09:30pm NW 9 13 - - - - 10 - - 14.1 1025.3 0.0
27/09:00pm NW 9 12 - - - - 10 - - 13.5 1025.2 0.0
27/08:30pm NW 8 11 - - - - 10 - - 13.4 1025.1 0.0

Other formats

Comma delimited format used in spreadsheet applications
http://www.bom.gov.au/fwo/IDV60701/IDV60701.94828.axf

JavaScript Object Notation format (JSON) in row-major order
http://www.bom.gov.au/fwo/IDV60701/IDV60701.94828.json

Data quality

Most of these data are generated automatically and are frequently updated. Quality checks on data are not normally performed. It is possible for incorrect values to appear. Refer to information at About Latest Weather Observations and please check the disclaimer before using these data.